sensor_id;sensor_type;location;lat;lon;timestamp;P1;durP1;ratioP1;P2;durP2;ratioP2
73850;SDS011;62190;51.548;5.688;2022-10-04T00:00:27;37.50;;;21.30;;
73850;SDS011;62190;51.548;5.688;2022-10-04T00:03:07;38.48;;;23.35;;
73850;SDS011;62190;51.548;5.688;2022-10-04T00:05:36;46.23;;;25.88;;
73850;SDS011;62190;51.548;5.688;2022-10-04T00:08:17;44.53;;;25.45;;
73850;SDS011;62190;51.548;5.688;2022-10-04T00:10:42;43.30;;;26.35;;
73850;SDS011;62190;51.548;5.688;2022-10-04T00:13:15;45.73;;;25.80;;
73850;SDS011;62190;51.548;5.688;2022-10-04T00:15:43;38.80;;;24.12;;
73850;SDS011;62190;51.548;5.688;2022-10-04T00:25:59;50.35;;;28.40;;
73850;SDS011;62190;51.548;5.688;2022-10-04T00:28:29;53.85;;;28.23;;
73850;SDS011;62190;51.548;5.688;2022-10-04T00:31:05;45.48;;;24.80;;
73850;SDS011;62190;51.548;5.688;2022-10-04T00:36:39;46.92;;;26.57;;
73850;SDS011;62190;51.548;5.688;2022-10-04T00:39:24;42.78;;;26.00;;
73850;SDS011;62190;51.548;5.688;2022-10-04T00:41:56;36.23;;;23.20;;
73850;SDS011;62190;51.548;5.688;2022-10-04T00:44:37;41.02;;;24.07;;
73850;SDS011;62190;51.548;5.688;2022-10-04T00:47:29;48.48;;;25.35;;
73850;SDS011;62190;51.548;5.688;2022-10-04T00:49:54;44.53;;;25.48;;
73850;SDS011;62190;51.548;5.688;2022-10-04T00:52:32;47.58;;;25.68;;
73850;SDS011;62190;51.548;5.688;2022-10-04T00:54:58;43.73;;;26.87;;
73850;SDS011;62190;51.548;5.688;2022-10-04T00:57:37;45.85;;;26.52;;
73850;SDS011;62190;51.548;5.688;2022-10-04T01:00:10;46.55;;;25.10;;
73850;SDS011;62190;51.548;5.688;2022-10-04T01:05:30;46.15;;;29.52;;
73850;SDS011;62190;51.548;5.688;2022-10-04T01:08:08;61.90;;;33.95;;
73850;SDS011;62190;51.548;5.688;2022-10-04T01:10:44;59.58;;;32.88;;
73850;SDS011;62190;51.548;5.688;2022-10-04T01:13:19;69.05;;;32.60;;
73850;SDS011;62190;51.548;5.688;2022-10-04T01:15:52;74.00;;;34.30;;
73850;SDS011;62190;51.548;5.688;2022-10-04T01:18:33;58.65;;;34.13;;
73850;SDS011;62190;51.548;5.688;2022-10-04T01:26:33;70.85;;;36.10;;
73850;SDS011;62190;51.548;5.688;2022-10-04T01:31:52;100.07;;;41.15;;
73850;SDS011;62190;51.548;5.688;2022-10-04T01:34:25;72.45;;;34.30;;
73850;SDS011;62190;51.548;5.688;2022-10-04T01:36:55;95.25;;;36.13;;
73850;SDS011;62190;51.548;5.688;2022-10-04T01:39:26;63.70;;;32.83;;
73850;SDS011;62190;51.548;5.688;2022-10-04T01:44:53;66.22;;;29.30;;
73850;SDS011;62190;51.548;5.688;2022-10-04T01:50:19;67.00;;;30.97;;
73850;SDS011;62190;51.548;5.688;2022-10-04T01:52:48;53.95;;;28.70;;
73850;SDS011;62190;51.548;5.688;2022-10-04T01:55:18;47.43;;;29.07;;
73850;SDS011;62190;51.548;5.688;2022-10-04T01:57:48;53.68;;;30.08;;
73850;SDS011;62190;51.548;5.688;2022-10-04T02:00:20;50.43;;;27.13;;
73850;SDS011;62190;51.548;5.688;2022-10-04T02:03:03;63.25;;;28.77;;
73850;SDS011;62190;51.548;5.688;2022-10-04T02:05:34;51.05;;;30.77;;
73850;SDS011;62190;51.548;5.688;2022-10-04T02:08:02;76.10;;;37.38;;
73850;SDS011;62190;51.548;5.688;2022-10-04T02:10:31;72.50;;;37.65;;
73850;SDS011;62190;51.548;5.688;2022-10-04T02:13:01;80.25;;;40.90;;
73850;SDS011;62190;51.548;5.688;2022-10-04T02:15:32;85.62;;;41.00;;
73850;SDS011;62190;51.548;5.688;2022-10-04T02:18:08;84.03;;;40.50;;
73850;SDS011;62190;51.548;5.688;2022-10-04T02:20:37;97.05;;;46.18;;
73850;SDS011;62190;51.548;5.688;2022-10-04T02:23:06;75.75;;;39.10;;
73850;SDS011;62190;51.548;5.688;2022-10-04T02:25:35;87.35;;;44.63;;
73850;SDS011;62190;51.548;5.688;2022-10-04T02:28:03;97.25;;;44.55;;
73850;SDS011;62190;51.548;5.688;2022-10-04T02:30:36;85.03;;;40.63;;
73850;SDS011;62190;51.548;5.688;2022-10-04T02:33:07;85.20;;;38.45;;
73850;SDS011;62190;51.548;5.688;2022-10-04T02:35:36;79.05;;;36.88;;
73850;SDS011;62190;51.548;5.688;2022-10-04T02:38:31;74.40;;;35.08;;
73850;SDS011;62190;51.548;5.688;2022-10-04T02:43:45;74.62;;;37.13;;
73850;SDS011;62190;51.548;5.688;2022-10-04T02:46:17;58.68;;;32.63;;
73850;SDS011;62190;51.548;5.688;2022-10-04T02:48:57;76.67;;;39.63;;
73850;SDS011;62190;51.548;5.688;2022-10-04T02:57:00;70.70;;;36.63;;
73850;SDS011;62190;51.548;5.688;2022-10-04T02:59:27;74.75;;;35.83;;
73850;SDS011;62190;51.548;5.688;2022-10-04T03:01:59;85.97;;;40.48;;
73850;SDS011;62190;51.548;5.688;2022-10-04T03:04:27;73.60;;;37.15;;
73850;SDS011;62190;51.548;5.688;2022-10-04T03:07:00;84.80;;;42.20;;
73850;SDS011;62190;51.548;5.688;2022-10-04T03:09:29;77.92;;;37.93;;
73850;SDS011;62190;51.548;5.688;2022-10-04T03:11:57;74.60;;;36.53;;
73850;SDS011;62190;51.548;5.688;2022-10-04T03:14:25;69.10;;;36.25;;
73850;SDS011;62190;51.548;5.688;2022-10-04T03:16:54;86.30;;;38.95;;
73850;SDS011;62190;51.548;5.688;2022-10-04T03:19:25;77.78;;;36.05;;
73850;SDS011;62190;51.548;5.688;2022-10-04T03:21:57;66.10;;;33.23;;
73850;SDS011;62190;51.548;5.688;2022-10-04T03:24:27;64.22;;;32.23;;
73850;SDS011;62190;51.548;5.688;2022-10-04T03:27:30;73.75;;;34.25;;
73850;SDS011;62190;51.548;5.688;2022-10-04T03:29:58;72.00;;;34.63;;
73850;SDS011;62190;51.548;5.688;2022-10-04T03:32:27;72.15;;;34.60;;
73850;SDS011;62190;51.548;5.688;2022-10-04T03:35:04;79.27;;;37.78;;
73850;SDS011;62190;51.548;5.688;2022-10-04T03:37:29;69.53;;;34.95;;
73850;SDS011;62190;51.548;5.688;2022-10-04T03:39:59;81.63;;;38.13;;
73850;SDS011;62190;51.548;5.688;2022-10-04T03:42:30;53.63;;;30.82;;
73850;SDS011;62190;51.548;5.688;2022-10-04T03:45:00;63.28;;;31.68;;
73850;SDS011;62190;51.548;5.688;2022-10-04T03:47:34;63.58;;;30.60;;
73850;SDS011;62190;51.548;5.688;2022-10-04T03:50:46;50.95;;;27.45;;
73850;SDS011;62190;51.548;5.688;2022-10-04T03:53:00;63.73;;;30.90;;
73850;SDS011;62190;51.548;5.688;2022-10-04T03:55:32;57.58;;;29.75;;
73850;SDS011;62190;51.548;5.688;2022-10-04T03:58:00;58.98;;;28.42;;
73850;SDS011;62190;51.548;5.688;2022-10-04T04:00:28;56.77;;;27.58;;
73850;SDS011;62190;51.548;5.688;2022-10-04T04:02:57;62.60;;;31.17;;
73850;SDS011;62190;51.548;5.688;2022-10-04T04:08:16;81.22;;;34.98;;
73850;SDS011;62190;51.548;5.688;2022-10-04T04:10:50;62.73;;;30.17;;
73850;SDS011;62190;51.548;5.688;2022-10-04T04:16:25;60.38;;;27.45;;
73850;SDS011;62190;51.548;5.688;2022-10-04T04:18:54;73.10;;;30.20;;
73850;SDS011;62190;51.548;5.688;2022-10-04T04:21:23;55.70;;;27.55;;
73850;SDS011;62190;51.548;5.688;2022-10-04T04:23:58;78.33;;;30.05;;
73850;SDS011;62190;51.548;5.688;2022-10-04T04:31:40;54.48;;;27.85;;
73850;SDS011;62190;51.548;5.688;2022-10-04T04:34:20;54.80;;;26.80;;
73850;SDS011;62190;51.548;5.688;2022-10-04T04:36:49;40.10;;;23.45;;
73850;SDS011;62190;51.548;5.688;2022-10-04T04:39:22;46.53;;;23.05;;
73850;SDS011;62190;51.548;5.688;2022-10-04T04:42:12;52.45;;;24.67;;
73850;SDS011;62190;51.548;5.688;2022-10-04T04:44:59;56.10;;;26.73;;
73850;SDS011;62190;51.548;5.688;2022-10-04T04:47:28;55.50;;;27.05;;
73850;SDS011;62190;51.548;5.688;2022-10-04T04:50:10;62.17;;;28.07;;
73850;SDS011;62190;51.548;5.688;2022-10-04T04:52:38;66.30;;;30.25;;
73850;SDS011;62190;51.548;5.688;2022-10-04T04:55:13;47.65;;;25.32;;
73850;SDS011;62190;51.548;5.688;2022-10-04T04:57:37;56.02;;;27.05;;
73850;SDS011;62190;51.548;5.688;2022-10-04T05:00:05;58.65;;;27.98;;
73850;SDS011;62190;51.548;5.688;2022-10-04T05:02:34;59.53;;;27.35;;
73850;SDS011;62190;51.548;5.688;2022-10-04T05:05:17;62.65;;;28.40;;
73850;SDS011;62190;51.548;5.688;2022-10-04T05:08:47;62.20;;;29.48;;
73850;SDS011;62190;51.548;5.688;2022-10-04T05:10:32;69.95;;;29.92;;
73850;SDS011;62190;51.548;5.688;2022-10-04T05:13:00;75.80;;;32.25;;
73850;SDS011;62190;51.548;5.688;2022-10-04T05:15:38;81.75;;;34.85;;
73850;SDS011;62190;51.548;5.688;2022-10-04T05:18:12;62.00;;;29.27;;
73850;SDS011;62190;51.548;5.688;2022-10-04T05:20:50;72.50;;;30.57;;
73850;SDS011;62190;51.548;5.688;2022-10-04T05:23:18;52.88;;;25.97;;
73850;SDS011;62190;51.548;5.688;2022-10-04T05:25:45;53.10;;;26.17;;
73850;SDS011;62190;51.548;5.688;2022-10-04T05:28:14;55.38;;;25.95;;
73850;SDS011;62190;51.548;5.688;2022-10-04T05:30:45;56.33;;;24.32;;
73850;SDS011;62190;51.548;5.688;2022-10-04T05:33:45;65.70;;;26.85;;
73850;SDS011;62190;51.548;5.688;2022-10-04T05:39:05;51.60;;;23.38;;
73850;SDS011;62190;51.548;5.688;2022-10-04T05:41:38;58.87;;;26.70;;
73850;SDS011;62190;51.548;5.688;2022-10-04T05:47:00;49.85;;;24.02;;
73850;SDS011;62190;51.548;5.688;2022-10-04T05:49:32;57.58;;;23.73;;
73850;SDS011;62190;51.548;5.688;2022-10-04T05:52:05;45.83;;;19.73;;
73850;SDS011;62190;51.548;5.688;2022-10-04T05:54:34;33.65;;;17.10;;
73850;SDS011;62190;51.548;5.688;2022-10-04T05:59:49;51.10;;;22.45;;
73850;SDS011;62190;51.548;5.688;2022-10-04T06:02:26;56.35;;;25.27;;
73850;SDS011;62190;51.548;5.688;2022-10-04T06:05:22;65.50;;;26.15;;
73850;SDS011;62190;51.548;5.688;2022-10-04T06:07:52;53.40;;;24.00;;
73850;SDS011;62190;51.548;5.688;2022-10-04T06:16:14;50.15;;;24.43;;
73850;SDS011;62190;51.548;5.688;2022-10-04T06:21:28;60.17;;;26.48;;
73850;SDS011;62190;51.548;5.688;2022-10-04T06:24:13;53.90;;;23.77;;
73850;SDS011;62190;51.548;5.688;2022-10-04T06:26:54;57.17;;;24.50;;
73850;SDS011;62190;51.548;5.688;2022-10-04T06:29:19;57.27;;;25.82;;
73850;SDS011;62190;51.548;5.688;2022-10-04T06:32:06;51.20;;;26.00;;
73850;SDS011;62190;51.548;5.688;2022-10-04T06:35:06;60.50;;;24.98;;
73850;SDS011;62190;51.548;5.688;2022-10-04T06:37:43;56.68;;;25.32;;
73850;SDS011;62190;51.548;5.688;2022-10-04T06:43:19;52.48;;;22.20;;
73850;SDS011;62190;51.548;5.688;2022-10-04T06:48:33;46.13;;;23.42;;
73850;SDS011;62190;51.548;5.688;2022-10-04T06:53:58;36.42;;;19.60;;
73850;SDS011;62190;51.548;5.688;2022-10-04T06:56:56;29.90;;;18.07;;
73850;SDS011;62190;51.548;5.688;2022-10-04T07:02:33;32.17;;;16.75;;
73850;SDS011;62190;51.548;5.688;2022-10-04T07:08:02;28.62;;;13.80;;
73850;SDS011;62190;51.548;5.688;2022-10-04T07:10:33;25.75;;;13.48;;
73850;SDS011;62190;51.548;5.688;2022-10-04T07:16:19;20.70;;;12.40;;
73850;SDS011;62190;51.548;5.688;2022-10-04T07:21:41;18.60;;;10.48;;
73850;SDS011;62190;51.548;5.688;2022-10-04T07:24:20;15.88;;;9.60;;
73850;SDS011;62190;51.548;5.688;2022-10-04T07:27:02;16.45;;;10.43;;
73850;SDS011;62190;51.548;5.688;2022-10-04T07:29:34;17.62;;;9.40;;
73850;SDS011;62190;51.548;5.688;2022-10-04T07:35:27;9.30;;;6.17;;
73850;SDS011;62190;51.548;5.688;2022-10-04T07:37:12;14.60;;;10.10;;
73850;SDS011;62190;51.548;5.688;2022-10-04T07:42:30;12.70;;;5.87;;
73850;SDS011;62190;51.548;5.688;2022-10-04T07:45:13;11.73;;;6.20;;
73850;SDS011;62190;51.548;5.688;2022-10-04T07:47:45;10.05;;;5.08;;
73850;SDS011;62190;51.548;5.688;2022-10-04T07:50:23;10.38;;;5.58;;
73850;SDS011;62190;51.548;5.688;2022-10-04T07:53:10;8.90;;;4.92;;
73850;SDS011;62190;51.548;5.688;2022-10-04T07:58:20;13.03;;;5.42;;
73850;SDS011;62190;51.548;5.688;2022-10-04T08:07:00;8.18;;;4.60;;
73850;SDS011;62190;51.548;5.688;2022-10-04T08:09:50;7.83;;;3.77;;
73850;SDS011;62190;51.548;5.688;2022-10-04T08:12:24;9.70;;;4.60;;
73850;SDS011;62190;51.548;5.688;2022-10-04T08:17:55;6.83;;;4.80;;
73850;SDS011;62190;51.548;5.688;2022-10-04T08:28:37;8.48;;;5.70;;
73850;SDS011;62190;51.548;5.688;2022-10-04T08:34:36;15.90;;;6.47;;
73850;SDS011;62190;51.548;5.688;2022-10-04T08:54:34;10.05;;;6.85;;
73850;SDS011;62190;51.548;5.688;2022-10-04T08:59:59;13.03;;;7.50;;
73850;SDS011;62190;51.548;5.688;2022-10-04T09:02:49;13.62;;;7.45;;
73850;SDS011;62190;51.548;5.688;2022-10-04T09:14:25;13.08;;;7.40;;
73850;SDS011;62190;51.548;5.688;2022-10-04T09:19:47;13.30;;;6.35;;
73850;SDS011;62190;51.548;5.688;2022-10-04T09:25:20;10.25;;;5.50;;
73850;SDS011;62190;51.548;5.688;2022-10-04T09:27:57;14.75;;;6.20;;
73850;SDS011;62190;51.548;5.688;2022-10-04T09:47:20;6.85;;;3.75;;
73850;SDS011;62190;51.548;5.688;2022-10-04T09:53:19;5.97;;;3.70;;
73850;SDS011;62190;51.548;5.688;2022-10-04T09:56:10;7.30;;;3.70;;
73850;SDS011;62190;51.548;5.688;2022-10-04T09:58:46;10.60;;;3.83;;
73850;SDS011;62190;51.548;5.688;2022-10-04T10:04:07;6.58;;;2.72;;
73850;SDS011;62190;51.548;5.688;2022-10-04T10:09:39;6.15;;;3.37;;
73850;SDS011;62190;51.548;5.688;2022-10-04T10:12:43;9.38;;;3.80;;
73850;SDS011;62190;51.548;5.688;2022-10-04T10:15:52;6.33;;;3.02;;
73850;SDS011;62190;51.548;5.688;2022-10-04T10:18:37;8.78;;;3.12;;
73850;SDS011;62190;51.548;5.688;2022-10-04T10:21:16;9.73;;;3.60;;
73850;SDS011;62190;51.548;5.688;2022-10-04T10:23:57;5.17;;;3.00;;
73850;SDS011;62190;51.548;5.688;2022-10-04T10:32:11;8.90;;;3.22;;
73850;SDS011;62190;51.548;5.688;2022-10-04T10:35:13;7.37;;;3.20;;
73850;SDS011;62190;51.548;5.688;2022-10-04T10:41:02;8.55;;;3.10;;
73850;SDS011;62190;51.548;5.688;2022-10-04T10:46:37;6.40;;;3.00;;
73850;SDS011;62190;51.548;5.688;2022-10-04T10:49:12;6.80;;;3.05;;
73850;SDS011;62190;51.548;5.688;2022-10-04T10:52:11;6.10;;;3.02;;
73850;SDS011;62190;51.548;5.688;2022-10-04T10:55:06;4.60;;;2.70;;
73850;SDS011;62190;51.548;5.688;2022-10-04T11:00:34;5.70;;;2.72;;
73850;SDS011;62190;51.548;5.688;2022-10-04T11:08:57;7.85;;;3.33;;
73850;SDS011;62190;51.548;5.688;2022-10-04T11:11:43;5.15;;;3.20;;
73850;SDS011;62190;51.548;5.688;2022-10-04T11:19:39;4.45;;;2.58;;
73850;SDS011;62190;51.548;5.688;2022-10-04T11:40:02;4.78;;;1.72;;
73850;SDS011;62190;51.548;5.688;2022-10-04T11:45:12;8.25;;;2.50;;
73850;SDS011;62190;51.548;5.688;2022-10-04T11:48:00;6.12;;;2.40;;
73850;SDS011;62190;51.548;5.688;2022-10-04T11:59:10;4.97;;;2.12;;
73850;SDS011;62190;51.548;5.688;2022-10-04T12:04:49;6.40;;;2.20;;
73850;SDS011;62190;51.548;5.688;2022-10-04T12:07:23;4.67;;;2.55;;
73850;SDS011;62190;51.548;5.688;2022-10-04T12:15:51;5.58;;;2.33;;
73850;SDS011;62190;51.548;5.688;2022-10-04T12:21:24;8.08;;;2.45;;
73850;SDS011;62190;51.548;5.688;2022-10-04T12:32:43;3.98;;;2.30;;
73850;SDS011;62190;51.548;5.688;2022-10-04T12:40:42;6.37;;;2.42;;
73850;SDS011;62190;51.548;5.688;2022-10-04T12:43:15;3.85;;;2.05;;
73850;SDS011;62190;51.548;5.688;2022-10-04T12:48:51;4.17;;;2.12;;
73850;SDS011;62190;51.548;5.688;2022-10-04T12:51:45;5.17;;;2.25;;
73850;SDS011;62190;51.548;5.688;2022-10-04T12:59:56;4.45;;;1.80;;
73850;SDS011;62190;51.548;5.688;2022-10-04T13:07:51;6.83;;;2.20;;
73850;SDS011;62190;51.548;5.688;2022-10-04T13:13:08;6.08;;;2.45;;
73850;SDS011;62190;51.548;5.688;2022-10-04T13:15:46;4.87;;;1.82;;
73850;SDS011;62190;51.548;5.688;2022-10-04T13:20:59;4.17;;;2.05;;
73850;SDS011;62190;51.548;5.688;2022-10-04T13:23:58;5.72;;;2.72;;
73850;SDS011;62190;51.548;5.688;2022-10-04T13:27:14;5.05;;;2.27;;
73850;SDS011;62190;51.548;5.688;2022-10-04T13:29:31;4.33;;;1.82;;
73850;SDS011;62190;51.548;5.688;2022-10-04T13:32:25;6.78;;;2.12;;
73850;SDS011;62190;51.548;5.688;2022-10-04T13:34:56;7.25;;;2.25;;
73850;SDS011;62190;51.548;5.688;2022-10-04T13:37:43;4.92;;;2.08;;
73850;SDS011;62190;51.548;5.688;2022-10-04T13:40:23;4.03;;;2.08;;
73850;SDS011;62190;51.548;5.688;2022-10-04T13:51:48;5.53;;;2.25;;
73850;SDS011;62190;51.548;5.688;2022-10-04T13:57:43;6.83;;;2.25;;
73850;SDS011;62190;51.548;5.688;2022-10-04T14:00:13;5.22;;;2.35;;
73850;SDS011;62190;51.548;5.688;2022-10-04T14:03:08;6.12;;;2.65;;
73850;SDS011;62190;51.548;5.688;2022-10-04T14:14:13;4.20;;;2.58;;
73850;SDS011;62190;51.548;5.688;2022-10-04T14:22:10;7.20;;;2.58;;
73850;SDS011;62190;51.548;5.688;2022-10-04T14:42:10;6.40;;;3.12;;
73850;SDS011;62190;51.548;5.688;2022-10-04T14:45:06;8.10;;;2.65;;
73850;SDS011;62190;51.548;5.688;2022-10-04T14:50:28;10.80;;;3.10;;
73850;SDS011;62190;51.548;5.688;2022-10-04T14:53:18;7.22;;;2.67;;
73850;SDS011;62190;51.548;5.688;2022-10-04T14:58:25;5.10;;;2.83;;
73850;SDS011;62190;51.548;5.688;2022-10-04T15:06:24;6.65;;;2.87;;
73850;SDS011;62190;51.548;5.688;2022-10-04T15:11:38;6.28;;;2.50;;
73850;SDS011;62190;51.548;5.688;2022-10-04T15:14:22;7.83;;;3.08;;
73850;SDS011;62190;51.548;5.688;2022-10-04T15:17:01;3.45;;;2.60;;
73850;SDS011;62190;51.548;5.688;2022-10-04T15:19:32;8.73;;;3.20;;
73850;SDS011;62190;51.548;5.688;2022-10-04T15:22:05;6.72;;;3.20;;
73850;SDS011;62190;51.548;5.688;2022-10-04T15:27:21;6.65;;;2.67;;
73850;SDS011;62190;51.548;5.688;2022-10-04T15:32:36;7.05;;;3.22;;
73850;SDS011;62190;51.548;5.688;2022-10-04T15:37:57;5.83;;;2.80;;
73850;SDS011;62190;51.548;5.688;2022-10-04T15:40:27;6.60;;;3.30;;
73850;SDS011;62190;51.548;5.688;2022-10-04T15:42:57;6.33;;;3.40;;
73850;SDS011;62190;51.548;5.688;2022-10-04T15:50:59;5.90;;;3.05;;
73850;SDS011;62190;51.548;5.688;2022-10-04T15:56:24;3.92;;;3.42;;
73850;SDS011;62190;51.548;5.688;2022-10-04T15:59:04;7.05;;;2.85;;
73850;SDS011;62190;51.548;5.688;2022-10-04T16:01:54;6.78;;;2.72;;
73850;SDS011;62190;51.548;5.688;2022-10-04T16:04:42;6.22;;;2.80;;
73850;SDS011;62190;51.548;5.688;2022-10-04T16:08:15;8.60;;;2.90;;
73850;SDS011;62190;51.548;5.688;2022-10-04T16:09:54;5.83;;;3.00;;
73850;SDS011;62190;51.548;5.688;2022-10-04T16:15:35;8.85;;;3.60;;
73850;SDS011;62190;51.548;5.688;2022-10-04T16:21:03;7.28;;;2.87;;
73850;SDS011;62190;51.548;5.688;2022-10-04T16:23:35;4.85;;;2.80;;
73850;SDS011;62190;51.548;5.688;2022-10-04T16:26:10;5.90;;;3.22;;
73850;SDS011;62190;51.548;5.688;2022-10-04T16:28:55;4.77;;;3.10;;
73850;SDS011;62190;51.548;5.688;2022-10-04T16:31:26;5.58;;;3.25;;
73850;SDS011;62190;51.548;5.688;2022-10-04T16:37:18;6.67;;;2.83;;
73850;SDS011;62190;51.548;5.688;2022-10-04T16:39:57;4.43;;;2.77;;
73850;SDS011;62190;51.548;5.688;2022-10-04T16:42:36;7.65;;;4.08;;
73850;SDS011;62190;51.548;5.688;2022-10-04T16:55:50;8.70;;;4.08;;
73850;SDS011;62190;51.548;5.688;2022-10-04T16:58:34;6.67;;;4.12;;
73850;SDS011;62190;51.548;5.688;2022-10-04T17:09:49;13.03;;;4.87;;
73850;SDS011;62190;51.548;5.688;2022-10-04T17:12:28;10.65;;;4.58;;
73850;SDS011;62190;51.548;5.688;2022-10-04T17:17:50;8.63;;;4.83;;
73850;SDS011;62190;51.548;5.688;2022-10-04T17:19:47;7.12;;;4.78;;
73850;SDS011;62190;51.548;5.688;2022-10-04T17:25:13;10.50;;;5.00;;
73850;SDS011;62190;51.548;5.688;2022-10-04T17:27:49;7.92;;;5.12;;
73850;SDS011;62190;51.548;5.688;2022-10-04T17:38:19;10.00;;;6.15;;
73850;SDS011;62190;51.548;5.688;2022-10-04T17:41:52;11.75;;;7.05;;
73850;SDS011;62190;51.548;5.688;2022-10-04T17:43:57;11.75;;;7.05;;
73850;SDS011;62190;51.548;5.688;2022-10-04T17:46:37;12.85;;;8.30;;
73850;SDS011;62190;51.548;5.688;2022-10-04T17:52:03;12.18;;;7.92;;
73850;SDS011;62190;51.548;5.688;2022-10-04T17:54:52;12.03;;;8.10;;
73850;SDS011;62190;51.548;5.688;2022-10-04T18:00:19;11.57;;;7.95;;
73850;SDS011;62190;51.548;5.688;2022-10-04T18:05:28;19.12;;;9.55;;
73850;SDS011;62190;51.548;5.688;2022-10-04T18:10:51;18.27;;;10.03;;
73850;SDS011;62190;51.548;5.688;2022-10-04T18:13:29;17.20;;;9.30;;
73850;SDS011;62190;51.548;5.688;2022-10-04T18:18:48;17.10;;;10.32;;
73850;SDS011;62190;51.548;5.688;2022-10-04T18:21:20;13.22;;;10.05;;
73850;SDS011;62190;51.548;5.688;2022-10-04T18:24:01;13.03;;;8.20;;
73850;SDS011;62190;51.548;5.688;2022-10-04T18:26:29;11.63;;;7.30;;
73850;SDS011;62190;51.548;5.688;2022-10-04T18:28:59;16.37;;;7.58;;
73850;SDS011;62190;51.548;5.688;2022-10-04T18:31:37;14.45;;;8.08;;
73850;SDS011;62190;51.548;5.688;2022-10-04T18:34:18;16.10;;;7.60;;
73850;SDS011;62190;51.548;5.688;2022-10-04T18:37:12;13.75;;;8.03;;
73850;SDS011;62190;51.548;5.688;2022-10-04T18:42:16;15.13;;;8.73;;
73850;SDS011;62190;51.548;5.688;2022-10-04T18:44:57;16.93;;;8.25;;
73850;SDS011;62190;51.548;5.688;2022-10-04T18:49:57;14.20;;;8.13;;
73850;SDS011;62190;51.548;5.688;2022-10-04T18:57:41;13.10;;;8.35;;
73850;SDS011;62190;51.548;5.688;2022-10-04T19:00:35;17.45;;;9.03;;
73850;SDS011;62190;51.548;5.688;2022-10-04T19:06:07;13.32;;;9.18;;
73850;SDS011;62190;51.548;5.688;2022-10-04T19:22:44;18.15;;;10.58;;
73850;SDS011;62190;51.548;5.688;2022-10-04T19:25:51;22.50;;;12.00;;
73850;SDS011;62190;51.548;5.688;2022-10-04T19:28:16;16.95;;;11.10;;
73850;SDS011;62190;51.548;5.688;2022-10-04T19:30:43;19.05;;;10.63;;
73850;SDS011;62190;51.548;5.688;2022-10-04T19:38:59;23.90;;;12.25;;
73850;SDS011;62190;51.548;5.688;2022-10-04T19:44:43;20.87;;;10.23;;
73850;SDS011;62190;51.548;5.688;2022-10-04T19:47:42;20.48;;;10.32;;
73850;SDS011;62190;51.548;5.688;2022-10-04T19:50:20;20.43;;;9.48;;
73850;SDS011;62190;51.548;5.688;2022-10-04T19:53:01;15.25;;;9.45;;
73850;SDS011;62190;51.548;5.688;2022-10-04T19:55:50;16.93;;;9.05;;
73850;SDS011;62190;51.548;5.688;2022-10-04T19:58:20;17.17;;;9.68;;
73850;SDS011;62190;51.548;5.688;2022-10-04T20:00:49;13.28;;;7.75;;
73850;SDS011;62190;51.548;5.688;2022-10-04T20:03:18;12.15;;;6.60;;
73850;SDS011;62190;51.548;5.688;2022-10-04T20:05:49;12.25;;;7.60;;
73850;SDS011;62190;51.548;5.688;2022-10-04T20:11:20;11.45;;;7.10;;
73850;SDS011;62190;51.548;5.688;2022-10-04T20:29:59;10.58;;;7.65;;
73850;SDS011;62190;51.548;5.688;2022-10-04T20:35:03;13.32;;;7.53;;
73850;SDS011;62190;51.548;5.688;2022-10-04T20:45:45;14.60;;;9.05;;
73850;SDS011;62190;51.548;5.688;2022-10-04T20:48:16;14.35;;;8.53;;
73850;SDS011;62190;51.548;5.688;2022-10-04T20:50:47;12.70;;;7.62;;
73850;SDS011;62190;51.548;5.688;2022-10-04T20:53:24;11.55;;;6.50;;
73850;SDS011;62190;51.548;5.688;2022-10-04T20:56:09;11.25;;;6.97;;
73850;SDS011;62190;51.548;5.688;2022-10-04T20:58:49;12.60;;;8.03;;
73850;SDS011;62190;51.548;5.688;2022-10-04T21:01:23;11.40;;;6.85;;
73850;SDS011;62190;51.548;5.688;2022-10-04T21:06:57;14.55;;;7.58;;
73850;SDS011;62190;51.548;5.688;2022-10-04T21:09:27;14.03;;;7.47;;
73850;SDS011;62190;51.548;5.688;2022-10-04T21:11:59;13.45;;;7.53;;
73850;SDS011;62190;51.548;5.688;2022-10-04T21:14:35;12.35;;;7.22;;
73850;SDS011;62190;51.548;5.688;2022-10-04T21:17:32;12.63;;;7.75;;
73850;SDS011;62190;51.548;5.688;2022-10-04T21:19:57;13.60;;;7.62;;
73850;SDS011;62190;51.548;5.688;2022-10-04T21:24:56;14.20;;;7.37;;
73850;SDS011;62190;51.548;5.688;2022-10-04T21:27:29;15.58;;;7.65;;
73850;SDS011;62190;51.548;5.688;2022-10-04T21:30:04;14.00;;;8.03;;
73850;SDS011;62190;51.548;5.688;2022-10-04T21:32:31;12.70;;;7.53;;
73850;SDS011;62190;51.548;5.688;2022-10-04T21:35:02;12.03;;;6.97;;
73850;SDS011;62190;51.548;5.688;2022-10-04T21:37:31;11.03;;;6.62;;
73850;SDS011;62190;51.548;5.688;2022-10-04T21:40:00;12.73;;;6.83;;
73850;SDS011;62190;51.548;5.688;2022-10-04T21:42:28;13.58;;;7.87;;
73850;SDS011;62190;51.548;5.688;2022-10-04T21:44:56;11.40;;;6.95;;
73850;SDS011;62190;51.548;5.688;2022-10-04T21:47:24;12.25;;;7.08;;
73850;SDS011;62190;51.548;5.688;2022-10-04T21:49:51;10.95;;;6.60;;
73850;SDS011;62190;51.548;5.688;2022-10-04T21:52:20;11.70;;;7.42;;
73850;SDS011;62190;51.548;5.688;2022-10-04T21:54:48;12.63;;;7.17;;
73850;SDS011;62190;51.548;5.688;2022-10-04T21:57:15;15.08;;;7.90;;
73850;SDS011;62190;51.548;5.688;2022-10-04T21:59:42;12.37;;;6.95;;
73850;SDS011;62190;51.548;5.688;2022-10-04T22:02:13;10.88;;;6.95;;
73850;SDS011;62190;51.548;5.688;2022-10-04T22:04:41;14.70;;;7.83;;
73850;SDS011;62190;51.548;5.688;2022-10-04T22:07:10;14.70;;;7.65;;
73850;SDS011;62190;51.548;5.688;2022-10-04T22:09:40;15.35;;;6.50;;
73850;SDS011;62190;51.548;5.688;2022-10-04T22:12:06;16.37;;;7.85;;
73850;SDS011;62190;51.548;5.688;2022-10-04T22:14:34;13.48;;;7.22;;
73850;SDS011;62190;51.548;5.688;2022-10-04T22:17:01;10.25;;;6.95;;
73850;SDS011;62190;51.548;5.688;2022-10-04T22:19:30;11.30;;;6.53;;
73850;SDS011;62190;51.548;5.688;2022-10-04T22:21:58;12.07;;;7.20;;
73850;SDS011;62190;51.548;5.688;2022-10-04T22:24:25;10.60;;;7.25;;
73850;SDS011;62190;51.548;5.688;2022-10-04T22:26:53;13.68;;;7.78;;
73850;SDS011;62190;51.548;5.688;2022-10-04T22:29:24;15.83;;;6.87;;
73850;SDS011;62190;51.548;5.688;2022-10-04T22:31:54;10.78;;;7.62;;
73850;SDS011;62190;51.548;5.688;2022-10-04T22:34:21;10.50;;;7.33;;
73850;SDS011;62190;51.548;5.688;2022-10-04T22:36:50;10.98;;;7.03;;
73850;SDS011;62190;51.548;5.688;2022-10-04T22:39:20;11.25;;;7.40;;
73850;SDS011;62190;51.548;5.688;2022-10-04T22:41:53;10.28;;;7.22;;
73850;SDS011;62190;51.548;5.688;2022-10-04T22:44:24;14.98;;;8.80;;
73850;SDS011;62190;51.548;5.688;2022-10-04T22:46:58;11.73;;;7.15;;
73850;SDS011;62190;51.548;5.688;2022-10-04T22:49:26;12.65;;;7.15;;
73850;SDS011;62190;51.548;5.688;2022-10-04T22:51:59;14.10;;;7.70;;
73850;SDS011;62190;51.548;5.688;2022-10-04T22:54:32;12.00;;;7.50;;
73850;SDS011;62190;51.548;5.688;2022-10-04T22:57:02;11.45;;;7.87;;
73850;SDS011;62190;51.548;5.688;2022-10-04T22:59:33;9.55;;;6.72;;
73850;SDS011;62190;51.548;5.688;2022-10-04T23:02:05;11.95;;;7.08;;
73850;SDS011;62190;51.548;5.688;2022-10-04T23:04:33;12.88;;;7.65;;
73850;SDS011;62190;51.548;5.688;2022-10-04T23:07:00;13.43;;;7.15;;
73850;SDS011;62190;51.548;5.688;2022-10-04T23:09:29;11.63;;;7.37;;
73850;SDS011;62190;51.548;5.688;2022-10-04T23:11:56;11.70;;;7.95;;
73850;SDS011;62190;51.548;5.688;2022-10-04T23:14:23;12.98;;;8.25;;